Atlantic - Newfoundland: Past 24 Hour Conditions

 

Wreckhouse

11:30 PM NDT 28 July 2014
This table is a summary of hourly weather conditions for the past 24 hours.
Date / Time
(NDT)
Wind(knots) Conditions Visibility(km) Pressure(kPa) Air tempC) Relative humidity(%) Dew pointC) Humidex
28 July 2014
23:30 ESE 28 gust 36 N/A N/A 101.4 18 91 17 *
22:30 ESE 27 gust 38 N/A N/A 101.4 19 91 17 *
21:30 ESE 25 gust 37 N/A N/A 101.5 19 91 17 *
20:30 ESE 29 gust 43 N/A N/A 101.4 19 90 18 *
19:30 ESE 28 gust 36 N/A N/A 101.4 19 90 18 *
18:30 ESE 25 gust 38 N/A N/A 101.4 20 85 17 26
17:30 ESE 26 gust 36 N/A N/A 101.5 21 80 18 27
16:30 ESE 25 gust 35 N/A N/A 101.5 21 81 18 27
15:30 SE 25 gust 36 N/A N/A 101.5 22 82 18 28
14:30 SE 24 gust 34 N/A N/A 101.5 20 84 18 26
13:30 SE 19 gust 27 N/A N/A 101.6 20 86 17 *
12:30 SE 23 gust 29 N/A N/A 101.6 21 85 18 27
11:30 SE 20 gust 29 N/A N/A 101.6 20 86 18 26
10:30 SE 23 gust 35 N/A N/A 101.6 20 86 18 26
9:30 SE 25 gust 32 N/A N/A 101.6 20 88 18 *
8:30 SE 22 gust 31 N/A N/A 101.6 19 87 17 *
7:30 SE 19 gust 28 N/A N/A 101.6 18 89 16 *
6:30 SE 23 gust 31 N/A N/A 101.6 18 90 17 *
5:30 SSE 20 N/A N/A 101.6 18 90 17 *
4:30 SE 23 gust 28 N/A N/A 101.6 19 89 17 *
3:30 SE 18 gust 25 N/A N/A 101.6 18 84 16 *
2:30 SE 20 gust 28 N/A N/A 101.6 19 80 16 *
1:30 SSE 22 gust 28 N/A N/A 101.7 19 81 16 *
0:30 SE 21 gust 31 N/A N/A 101.7 19 83 16 *
27 July 2014
23:30 SE 18 gust 28 N/A N/A 101.7 19 83 16 *
 
Map of Atlantic - Newfoundland marine weather areas Southwestern Grand Banks - 44138 Banquereau - 44139 Tail of the Bank - 44140 Nickerson Bank - 44251 Northeast Burgeo Bank - 44255 Blanc-Sablon Airport Cap Whittle Chevery Natashquan Airport Heath Point Miscou Island Grand Étang Ingonish Beach North Mountain St.Paul Island J.A. Douglas McCurdy Sydney Airport Charlottetown Airport East Point North Cape Argentia Bonavista Burgeo Cape Race Corner Brook Daniel's Harbour Englee Ferolle Point La Scie Port aux Basques Rocky Harbour Sagona Island St. Anthony Airport St. John's Int'l Airport St. Lawrence Stephenville Airport Twillingate Winterland Wreckhouse Cartwright Airport Mary's Harbour Grates Cove Pool's Island Marticot Island Long Pond Îles de la Madeleine Airport
Legend: buoyBuoy land stationLand Station